Time;durP1;ratioP1;P1;durP2;ratioP2;P2;SDS_P1;SDS_P2;PMS_P1;PMS_P2;Temp;Humidity;BMP_temperature;BMP_pressure;BME280_temperature;BME280_humidity;BME280_pressure;Samples;Min_cycle;Max_cycle;Signal;HPM_P1;HPM_P2
2023/09/07 00:00:20;;;;;;;7.57;4.68;;;;;;;23.53;55.16;101836.28;5054296;27;20057;-68
2023/09/07 00:02:48;;;;;;;6.85;4.45;;;;;;;23.52;55.57;101828.34;5058497;28;20053;-68
2023/09/07 00:05:17;;;;;;;5.43;4.35;;;;;;;23.48;55.34;101825.34;5064836;27;20049;-68
2023/09/07 00:07:45;;;;;;;8.15;5.28;;;;;;;23.49;55.26;101829.72;5055904;27;20045;-68
2023/09/07 00:10:13;;;;;;;8.82;5.07;;;;;;;23.47;55.52;101831.94;5057462;28;20049;-68
2023/09/07 00:12:41;;;;;;;7.65;5.47;;;;;;;23.46;55.10;101829.47;5052429;28;20048;-68
2023/09/07 00:15:10;;;;;;;7.05;5.22;;;;;;;23.44;55.27;101827.00;5051644;27;20148;-68
2023/09/07 00:17:38;;;;;;;7.18;4.72;;;;;;;23.43;55.58;101822.63;5056339;27;20049;-68
2023/09/07 00:20:11;;;;;;;6.22;4.40;;;;;;;23.41;55.58;101832.25;5055601;27;20041;-68
2023/09/07 00:22:40;;;;;;;7.45;5.28;;;;;;;23.40;55.37;101827.88;5061140;27;20050;-68
2023/09/07 00:25:09;;;;;;;8.02;4.70;;;;;;;23.38;55.28;101828.16;5056236;27;20049;-68
2023/09/07 00:27:37;;;;;;;9.52;5.50;;;;;;;23.36;55.32;101827.59;5053911;28;20104;-68
2023/09/07 00:30:07;;;;;;;5.95;4.57;;;;;;;23.33;55.65;101820.75;5055703;28;20049;-68
2023/09/07 00:32:36;;;;;;;7.35;4.57;;;;;;;23.32;55.34;101821.88;5056829;27;20093;-68
2023/09/07 00:35:06;;;;;;;9.13;5.28;;;;;;;23.31;55.26;101822.16;5051133;27;20070;-68
2023/09/07 00:37:34;;;;;;;8.50;5.28;;;;;;;23.23;55.38;101807.13;5051932;28;20108;-68
2023/09/07 00:40:08;;;;;;;6.80;4.88;;;;;;;23.27;55.33;101815.59;5058711;27;20216;-68
2023/09/07 00:42:37;;;;;;;6.10;4.63;;;;;;;23.22;55.52;101810.97;5059120;28;20045;-68
2023/09/07 00:45:06;;;;;;;8.73;5.53;;;;;;;23.24;55.66;101813.41;5060016;27;20071;-68
2023/09/07 00:47:35;;;;;;;7.22;5.20;;;;;;;23.20;55.86;101809.59;5059507;28;20105;-67
2023/09/07 00:50:04;;;;;;;7.47;5.03;;;;;;;23.19;55.83;101810.69;5059521;27;20555;-68
2023/09/07 00:52:33;;;;;;;7.38;4.75;;;;;;;23.17;56.01;101816.47;5059048;27;20049;-68
2023/09/07 00:55:04;;;;;;;6.30;5.10;;;;;;;23.14;56.03;101814.28;5063097;28;20121;-68
2023/09/07 00:57:32;;;;;;;7.43;4.93;;;;;;;23.13;55.95;101818.13;5060152;27;20069;-69
2023/09/07 01:00:00;;;;;;;7.75;5.18;;;;;;;23.11;56.00;101820.34;5059125;28;20105;-68
2023/09/07 01:02:29;;;;;;;7.40;5.35;;;;;;;23.09;55.55;101827.22;5060219;27;20040;-68
2023/09/07 01:04:57;;;;;;;7.43;5.10;;;;;;;23.07;55.81;101815.72;5060144;28;20132;-68
2023/09/07 01:07:33;;;;;;;6.68;4.78;;;;;;;23.05;55.68;101824.22;5061812;28;20433;-69
2023/09/07 01:10:03;;;;;;;9.15;5.25;;;;;;;23.00;56.09;101816.00;5054476;27;20434;-68
2023/09/07 01:12:32;;;;;;;7.80;5.50;;;;;;;23.00;55.79;101822.31;5061606;28;20041;-68
2023/09/07 01:15:00;;;;;;;8.43;5.82;;;;;;;22.98;55.69;101816.28;5058294;28;20053;-69
2023/09/07 01:17:29;;;;;;;6.78;5.10;;;;;;;22.95;56.00;101824.25;5063818;27;20052;-68
2023/09/07 01:19:59;;;;;;;6.82;5.00;;;;;;;22.92;55.77;101825.66;5060773;28;20049;-68
2023/09/07 01:22:28;;;;;;;7.50;5.13;;;;;;;22.68;55.86;101787.06;5061615;27;20048;-68
2023/09/07 01:24:56;;;;;;;7.30;5.32;;;;;;;22.88;55.83;101816.34;5054865;28;20045;-68
2023/09/07 01:27:24;;;;;;;7.45;5.40;;;;;;;22.85;56.03;101816.91;5059350;27;20048;-68
2023/09/07 01:29:52;;;;;;;5.95;4.75;;;;;;;22.83;56.21;101813.63;5055973;28;20049;-68
2023/09/07 01:32:20;;;;;;;8.13;4.72;;;;;;;22.82;56.24;101819.38;5056495;28;20060;-68
2023/09/07 01:34:48;;;;;;;8.40;5.13;;;;;;;22.81;56.30;101809.50;5058423;28;20056;-68
2023/09/07 01:37:16;;;;;;;8.23;5.25;;;;;;;22.80;55.98;101813.34;5058213;27;20075;-68
2023/09/07 01:39:45;;;;;;;7.43;5.13;;;;;;;22.77;56.09;101801.00;5059838;28;20053;-68
2023/09/07 01:42:13;;;;;;;6.35;4.28;;;;;;;22.74;55.92;101802.38;5055554;28;20045;-68
2023/09/07 01:44:41;;;;;;;6.78;4.80;;;;;;;22.72;56.20;101798.28;5052806;27;20577;-68
2023/09/07 01:47:08;;;;;;;8.50;4.90;;;;;;;22.71;55.85;101800.19;5056019;28;20056;-68
2023/09/07 01:49:36;;;;;;;6.78;4.70;;;;;;;22.69;56.22;101802.41;5056670;28;20068;-69
2023/09/07 01:52:05;;;;;;;6.88;4.53;;;;;;;22.68;56.40;101791.72;5056131;28;20071;-68
2023/09/07 01:54:33;;;;;;;11.60;5.30;;;;;;;22.66;55.98;101796.66;5055511;27;21230;-67
2023/09/07 01:57:02;;;;;;;7.93;5.40;;;;;;;22.65;56.42;101795.84;5056700;27;20049;-68
2023/09/07 01:59:30;;;;;;;7.03;5.28;;;;;;;22.62;56.31;101793.66;5050469;28;20122;-68
2023/09/07 02:01:58;;;;;;;7.57;4.88;;;;;;;22.62;55.93;101801.88;5059471;28;20041;-68
2023/09/07 02:04:26;;;;;;;6.25;4.32;;;;;;;22.60;56.25;101797.78;5053828;28;20053;-68
2023/09/07 02:06:54;;;;;;;8.20;5.20;;;;;;;22.58;56.16;101798.06;5059063;27;20057;-68
2023/09/07 02:09:22;;;;;;;7.63;5.10;;;;;;;22.59;56.11;101790.66;5073739;27;20046;-67
2023/09/07 02:11:49;;;;;;;6.70;4.55;;;;;;;22.54;56.25;101788.75;5058347;27;20061;-68
2023/09/07 02:14:18;;;;;;;6.85;4.68;;;;;;;22.55;56.46;101800.53;5057593;27;20053;-68
2023/09/07 02:16:46;;;;;;;6.43;4.60;;;;;;;22.53;55.99;101795.38;5057677;28;20048;-68
2023/09/07 02:19:14;;;;;;;5.70;4.50;;;;;;;22.52;56.20;101799.19;5058302;27;20041;-68
2023/09/07 02:21:42;;;;;;;8.77;5.13;;;;;;;22.52;55.98;101798.38;5052508;27;20113;-68
2023/09/07 02:24:10;;;;;;;6.65;4.72;;;;;;;22.49;56.31;101796.19;5053475;27;20045;-69
2023/09/07 02:26:43;;;;;;;5.95;4.72;;;;;;;22.48;56.16;101794.56;5051397;28;20068;-68
2023/09/07 02:29:11;;;;;;;9.57;5.35;;;;;;;22.46;56.04;101792.09;5052462;27;20075;-69
2023/09/07 02:31:41;;;;;;;7.43;4.93;;;;;;;22.43;56.44;101787.19;5057303;28;20116;-69
2023/09/07 02:34:08;;;;;;;7.40;5.05;;;;;;;22.43;56.07;101794.56;5058121;27;20045;-68
2023/09/07 02:36:36;;;;;;;6.15;4.55;;;;;;;22.42;56.51;101790.19;5056624;28;20056;-68
2023/09/07 02:39:04;;;;;;;6.95;4.60;;;;;;;22.39;56.07;101788.84;5056553;27;20045;-68
2023/09/07 02:41:32;;;;;;;7.03;5.20;;;;;;;22.34;56.04;101792.41;5056850;27;20045;-68
2023/09/07 02:44:00;;;;;;;7.20;5.32;;;;;;;22.35;56.17;101791.31;5056618;27;20108;-67
2023/09/07 02:46:28;;;;;;;7.95;5.18;;;;;;;22.33;56.26;101796.25;5053436;28;20045;-68
2023/09/07 02:48:59;;;;;;;5.85;4.65;;;;;;;22.31;56.47;101795.69;5058323;28;20052;-68
2023/09/07 02:51:27;;;;;;;7.28;4.75;;;;;;;22.29;56.49;101789.69;5056847;28;20259;-68
2023/09/07 02:53:57;;;;;;;7.68;4.70;;;;;;;22.27;56.44;101793.78;5060629;27;20089;-68
2023/09/07 02:56:25;;;;;;;7.07;4.38;;;;;;;22.24;56.19;101788.88;5067901;27;20045;-68
2023/09/07 02:58:52;;;;;;;8.05;4.55;;;;;;;22.24;56.32;101792.41;5056627;27;20078;-68
2023/09/07 03:01:21;;;;;;;10.25;4.93;;;;;;;22.22;56.65;101791.88;5056394;28;20073;-68
2023/09/07 03:03:49;;;;;;;8.02;4.85;;;;;;;22.21;56.60;101782.03;5055572;28;20045;-68
2023/09/07 03:06:19;;;;;;;8.35;4.22;;;;;;;22.20;56.44;101788.59;5058115;27;20416;-68
2023/09/07 03:08:47;;;;;;;6.00;4.47;;;;;;;22.19;56.62;101786.13;5058935;28;20045;-68
2023/09/07 03:11:15;;;;;;;7.18;5.15;;;;;;;22.18;56.62;101784.50;5059106;27;20074;-69
2023/09/07 03:13:43;;;;;;;7.13;5.30;;;;;;;22.15;56.59;101788.59;5057355;28;20052;-68
2023/09/07 03:16:11;;;;;;;6.32;4.43;;;;;;;22.14;56.63;101792.44;5056490;27;20110;-69
2023/09/07 03:18:39;;;;;;;8.68;4.80;;;;;;;22.11;56.80;101787.50;5066309;27;20098;-69
2023/09/07 03:21:07;;;;;;;10.07;5.22;;;;;;;22.10;56.38;101793.28;5057068;28;20094;-68
2023/09/07 03:23:36;;;;;;;7.03;4.43;;;;;;;22.08;56.75;101788.06;5058225;28;20454;-69
2023/09/07 03:26:04;;;;;;;7.63;5.05;;;;;;;21.96;56.69;101779.28;5053781;27;20049;-69
2023/09/07 03:28:32;;;;;;;8.23;4.82;;;;;;;21.92;56.80;101765.34;5055309;27;20109;-69
2023/09/07 03:31:00;;;;;;;6.63;4.78;;;;;;;22.03;56.76;101783.41;5051631;28;20130;-67
2023/09/07 03:33:28;;;;;;;7.30;4.60;;;;;;;22.02;56.45;101789.19;5057995;28;20037;-68
2023/09/07 03:35:58;;;;;;;6.28;4.10;;;;;;;22.00;56.62;101789.41;5064883;27;20109;-67
2023/09/07 03:38:26;;;;;;;7.10;4.50;;;;;;;21.86;56.71;101763.69;5057755;27;20084;-67
2023/09/07 03:40:56;;;;;;;5.32;4.20;;;;;;;21.97;56.89;101787.22;5055807;27;20045;-67
2023/09/07 03:43:23;;;;;;;6.78;4.82;;;;;;;21.96;56.66;101791.06;5063962;27;20056;-67
2023/09/07 03:45:51;;;;;;;5.68;3.95;;;;;;;21.94;56.83;101792.44;5062442;27;20049;-68
2023/09/07 03:48:20;;;;;;;6.93;4.53;;;;;;;21.93;56.74;101799.81;5060081;28;20045;-68
2023/09/07 03:50:48;;;;;;;7.35;4.65;;;;;;;21.93;56.42;101802.56;5059446;27;20125;-69
2023/09/07 03:53:16;;;;;;;8.38;4.82;;;;;;;21.91;56.54;101791.06;5057554;27;20040;-67
2023/09/07 03:55:46;;;;;;;7.63;5.40;;;;;;;21.90;56.58;101794.91;5061845;28;20146;-67
2023/09/07 03:58:15;;;;;;;6.00;4.63;;;;;;;21.89;56.92;101795.16;5057680;28;20093;-68
2023/09/07 04:00:43;;;;;;;9.90;4.60;;;;;;;21.87;56.71;101789.16;5060078;27;20045;-68
2023/09/07 04:03:11;;;;;;;7.10;4.50;;;;;;;21.86;56.83;101792.97;5053945;28;20102;-68
2023/09/07 04:05:39;;;;;;;9.05;4.55;;;;;;;21.85;56.83;101800.38;5054901;28;20465;-67
2023/09/07 04:08:07;;;;;;;7.72;5.60;;;;;;;21.83;56.83;101802.56;5054989;27;20054;-67
2023/09/07 04:10:37;;;;;;;6.18;4.47;;;;;;;21.82;56.91;101795.44;5057993;28;20064;-67
2023/09/07 04:13:06;;;;;;;6.35;4.57;;;;;;;21.81;56.86;101799.28;5054680;27;20046;-67
2023/09/07 04:15:43;;;;;;;7.32;4.50;;;;;;;21.79;56.57;101796.00;5055684;27;20065;-67
2023/09/07 04:18:12;;;;;;;6.47;4.90;;;;;;;21.78;57.06;101794.34;5060454;27;20049;-67
2023/09/07 04:20:40;;;;;;;5.63;4.35;;;;;;;21.72;56.72;101788.06;5057726;27;20044;-67
2023/09/07 04:23:08;;;;;;;7.03;4.55;;;;;;;21.73;56.75;101791.63;5057917;28;20041;-67
2023/09/07 04:25:36;;;;;;;5.57;4.30;;;;;;;21.73;56.85;101789.69;5059447;27;20405;-67
2023/09/07 04:28:04;;;;;;;7.82;4.55;;;;;;;21.69;56.89;101794.06;5058356;27;20052;-68
2023/09/07 04:30:32;;;;;;;6.18;4.88;;;;;;;21.71;56.97;101794.63;5062927;27;20041;-67
2023/09/07 04:33:01;;;;;;;6.75;4.32;;;;;;;21.69;56.81;101796.81;5058452;28;20060;-67
2023/09/07 04:35:30;;;;;;;6.82;4.47;;;;;;;21.67;56.76;101795.44;5071549;27;20547;-67
2023/09/07 04:37:59;;;;;;;6.93;4.85;;;;;;;21.65;56.88;101798.44;5056380;27;20080;-67
2023/09/07 04:40:27;;;;;;;6.93;4.75;;;;;;;21.65;57.10;101808.56;5056886;27;20045;-67
2023/09/07 04:42:55;;;;;;;7.40;5.07;;;;;;;21.62;56.87;101798.19;5057233;28;20041;-66
2023/09/07 04:45:22;;;;;;;6.20;4.20;;;;;;;21.61;57.15;101802.00;5057392;27;20057;-67
2023/09/07 04:47:50;;;;;;;7.40;4.10;;;;;;;21.58;57.20;101800.63;5056177;27;20084;-69
2023/09/07 04:50:20;;;;;;;7.82;4.50;;;;;;;21.56;56.84;101805.56;5057434;28;20084;-70
2023/09/07 04:52:48;;;;;;;7.03;4.13;;;;;;;21.57;56.97;101800.91;5056415;27;20055;-68
2023/09/07 04:55:16;;;;;;;7.00;4.45;;;;;;;21.55;57.09;101806.66;5061071;28;20053;-66
2023/09/07 04:57:44;;;;;;;6.82;4.35;;;;;;;21.53;56.87;101808.84;5061976;27;20049;-65
2023/09/07 05:00:12;;;;;;;6.00;4.47;;;;;;;21.51;57.32;101797.34;5057100;28;20419;-69
2023/09/07 05:02:42;;;;;;;6.80;4.45;;;;;;;21.37;57.02;101782.56;5058490;28;20053;-68
2023/09/07 05:05:10;;;;;;;8.73;4.78;;;;;;;21.47;57.29;101798.16;5060230;27;21694;-68
2023/09/07 05:07:40;;;;;;;8.10;4.30;;;;;;;21.46;57.13;101805.53;5056616;28;20141;-68
2023/09/07 05:10:12;;;;;;;7.47;4.43;;;;;;;21.44;57.32;101800.34;5055690;27;20049;-70
2023/09/07 05:12:40;;;;;;;7.47;4.25;;;;;;;21.41;57.21;101814.56;5055679;28;20049;-68
2023/09/07 05:15:08;;;;;;;9.85;5.13;;;;;;;21.40;57.40;101812.91;5052579;28;20076;-69
2023/09/07 05:17:36;;;;;;;6.05;4.00;;;;;;;21.39;57.18;101818.66;5061371;27;20100;-69
2023/09/07 05:20:05;;;;;;;5.72;4.05;;;;;;;21.37;57.29;101821.66;5051184;28;20078;-69
2023/09/07 05:22:36;;;;;;;7.57;4.18;;;;;;;21.35;57.37;101812.09;5055764;28;20080;-66
2023/09/07 05:25:06;;;;;;;7.00;4.53;;;;;;;21.31;57.29;101816.44;5060360;28;20048;-67
2023/09/07 05:27:35;;;;;;;7.93;4.80;;;;;;;21.25;57.35;101804.69;4707844;27;9999863;-68
2023/09/07 05:30:03;;;;;;;8.98;4.80;;;;;;;21.31;57.51;101819.19;5055656;28;20055;-68
2023/09/07 05:32:31;;;;;;;9.30;4.05;;;;;;;21.15;57.45;101792.88;5057391;27;20101;-67
2023/09/07 05:34:59;;;;;;;8.02;4.32;;;;;;;21.27;57.49;101818.91;5058295;27;20063;-68
2023/09/07 05:37:26;;;;;;;5.88;4.10;;;;;;;21.26;57.50;101817.25;5066736;27;20098;-68
2023/09/07 05:39:54;;;;;;;7.18;4.55;;;;;;;21.24;57.40;101819.44;5055566;27;20116;-67
2023/09/07 05:42:25;;;;;;;6.85;4.55;;;;;;;21.23;57.64;101828.75;5052720;27;20049;-71
2023/09/07 05:44:53;;;;;;;6.13;4.38;;;;;;;21.19;57.74;101824.88;5053541;28;20052;-69
2023/09/07 05:47:22;;;;;;;5.57;4.32;;;;;;;21.22;57.53;101826.28;5052045;27;20045;-69
2023/09/07 05:49:50;;;;;;;6.60;4.18;;;;;;;21.21;57.42;101832.81;5056287;28;20053;-70
2023/09/07 05:52:18;;;;;;;9.00;4.88;;;;;;;21.20;57.59;101828.44;5053454;28;20103;-69
2023/09/07 05:54:46;;;;;;;6.53;4.38;;;;;;;21.18;57.49;101828.69;5067362;27;20055;-69
2023/09/07 05:57:14;;;;;;;6.50;3.97;;;;;;;21.15;57.49;101831.13;5054565;28;20374;-69
2023/09/07 05:59:43;;;;;;;5.88;3.97;;;;;;;21.16;57.46;101833.59;5057868;27;20048;-70
2023/09/07 06:02:11;;;;;;;9.88;4.22;;;;;;;21.14;57.68;101835.78;5051746;28;20080;-72
2023/09/07 06:04:39;;;;;;;12.32;4.43;;;;;;;21.16;57.73;101841.00;5050277;27;20071;-72
2023/09/07 06:07:07;;;;;;;6.15;4.35;;;;;;;21.13;57.66;101836.88;5055295;27;20112;-72
2023/09/07 06:09:35;;;;;;;7.88;4.65;;;;;;;20.98;57.76;101812.22;5050856;28;20049;-70
2023/09/07 06:12:03;;;;;;;9.93;4.93;;;;;;;21.12;57.75;101848.91;5050150;28;20109;-68
2023/09/07 06:14:31;;;;;;;6.82;4.55;;;;;;;20.90;57.59;101810.81;5052876;27;20053;-68
2023/09/07 06:17:01;;;;;;;5.70;4.00;;;;;;;21.11;57.66;101841.78;5063568;27;20056;-68
2023/09/07 06:19:28;;;;;;;7.90;3.95;;;;;;;21.11;57.89;101853.53;5051949;28;20060;-68
2023/09/07 06:21:56;;;;;;;6.47;4.07;;;;;;;21.10;57.89;101851.91;5059772;28;20069;-68
2023/09/07 06:24:24;;;;;;;6.22;4.30;;;;;;;21.11;57.83;101852.72;5059237;28;20124;-68
2023/09/07 06:26:52;;;;;;;6.38;4.43;;;;;;;21.07;57.62;101843.41;5055463;27;20049;-69
2023/09/07 06:29:20;;;;;;;7.78;4.15;;;;;;;21.13;57.75;101856.00;5055114;27;20053;-66
2023/09/07 06:31:49;;;;;;;5.53;4.20;;;;;;;21.13;57.79;101850.53;5058701;28;20053;-66
2023/09/07 06:34:19;;;;;;;6.70;4.35;;;;;;;21.11;57.83;101855.47;5060558;27;20044;-66
2023/09/07 06:36:47;;;;;;;8.13;4.93;;;;;;;21.11;58.04;101852.72;5054949;28;20052;-67
2023/09/07 06:39:15;;;;;;;6.25;4.30;;;;;;;21.12;57.76;101859.84;5059352;27;20057;-66
2023/09/07 06:41:46;;;;;;;6.97;4.18;;;;;;;21.09;57.95;101854.91;5059579;28;20049;-65
2023/09/07 06:44:14;;;;;;;7.47;4.10;;;;;;;21.10;57.83;101854.63;5061248;27;20064;-66
2023/09/07 06:46:45;;;;;;;7.65;4.47;;;;;;;21.08;57.88;101853.25;5059819;28;20053;-66
2023/09/07 06:49:13;;;;;;;8.98;4.15;;;;;;;21.09;57.68;101860.38;5061989;27;20102;-66
2023/09/07 06:51:42;;;;;;;5.40;3.60;;;;;;;21.09;57.84;101857.63;5060567;27;20090;-66
2023/09/07 06:54:10;;;;;;;6.00;3.78;;;;;;;21.10;57.96;101862.84;5065120;28;20045;-66
2023/09/07 06:56:38;;;;;;;5.93;3.72;;;;;;;21.09;57.87;101857.63;5061497;27;20513;-66
2023/09/07 06:59:06;;;;;;;5.93;3.65;;;;;;;21.10;58.01;101859.28;5058962;27;20070;-66
2023/09/07 07:01:35;;;;;;;5.32;3.70;;;;;;;21.09;58.02;101863.94;5058695;27;20531;-66
2023/09/07 07:04:03;;;;;;;6.25;3.78;;;;;;;21.09;58.12;101861.19;5060424;27;20155;-66
2023/09/07 07:06:31;;;;;;;8.68;4.15;;;;;;;21.10;58.43;101865.56;5056503;27;20108;-66
2023/09/07 07:09:00;;;;;;;6.95;4.40;;;;;;;21.11;58.24;101864.47;5056526;27;20382;-65
2023/09/07 07:11:28;;;;;;;5.97;3.65;;;;;;;21.12;58.37;101870.78;5057700;28;20092;-66
2023/09/07 07:13:56;;;;;;;5.13;3.45;;;;;;;21.11;58.18;101869.94;5056444;27;20049;-67
2023/09/07 07:16:24;;;;;;;8.55;4.05;;;;;;;21.11;58.41;101869.94;5057932;28;20082;-67
2023/09/07 07:18:52;;;;;;;7.20;3.40;;;;;;;21.09;58.36;101863.94;5061431;27;20302;-67
2023/09/07 07:21:20;;;;;;;5.28;3.25;;;;;;;21.12;58.37;101877.06;5058916;28;20049;-68
2023/09/07 07:23:48;;;;;;;5.57;3.65;;;;;;;21.13;58.24;101867.78;5061479;27;20485;-66
2023/09/07 07:26:17;;;;;;;8.32;3.75;;;;;;;21.14;58.53;101865.84;5059501;28;20052;-63
2023/09/07 07:28:45;;;;;;;6.30;3.50;;;;;;;21.13;58.39;101867.78;5060077;27;20389;-66
2023/09/07 07:31:13;;;;;;;5.47;3.53;;;;;;;21.15;58.54;101870.25;5057597;27;20045;-67
2023/09/07 07:33:40;;;;;;;6.63;3.45;;;;;;;21.16;58.46;101871.06;5058429;28;20057;-65
2023/09/07 07:36:08;;;;;;;5.68;3.65;;;;;;;21.17;58.45;101876.25;5057310;27;20061;-65
2023/09/07 07:38:36;;;;;;;6.53;3.95;;;;;;;21.18;58.49;101864.22;5055400;28;20049;-65
2023/09/07 07:41:05;;;;;;;6.80;2.97;;;;;;;21.18;58.64;101863.41;5057166;27;20055;-65
2023/09/07 07:43:35;;;;;;;5.90;3.55;;;;;;;21.20;58.41;101870.25;5057544;28;20053;-65
2023/09/07 07:46:04;;;;;;;9.45;3.85;;;;;;;21.21;58.53;101869.16;5054860;27;20052;-64
2023/09/07 07:48:33;;;;;;;6.00;3.58;;;;;;;21.23;58.51;101867.03;5059626;28;20140;-64
2023/09/07 07:51:03;;;;;;;5.47;3.60;;;;;;;21.23;58.55;101867.03;5060334;27;20113;-64
2023/09/07 07:53:31;;;;;;;6.35;3.55;;;;;;;21.25;58.59;101861.28;5069327;27;20047;-64
2023/09/07 07:56:00;;;;;;;7.03;3.55;;;;;;;21.25;58.50;101864.84;5062236;28;20176;-64
2023/09/07 07:58:28;;;;;;;5.38;3.63;;;;;;;21.26;58.52;101861.00;5057271;27;20551;-64
2023/09/07 08:00:58;;;;;;;4.90;3.53;;;;;;;21.27;58.68;101859.91;5057778;28;20052;-64
2023/09/07 08:03:26;;;;;;;10.73;4.72;;;;;;;21.25;58.81;101851.16;5064837;27;20068;-61
2023/09/07 08:05:54;;;;;;;7.28;3.47;;;;;;;21.22;59.29;101834.47;5063099;27;20052;-64
2023/09/07 08:08:22;;;;;;;8.95;3.97;;;;;;;21.36;58.82;101858.31;5060467;27;20088;-64
2023/09/07 08:10:50;;;;;;;8.15;3.70;;;;;;;21.36;58.75;101846.53;5055152;27;20066;-67
2023/09/07 08:13:19;;;;;;;6.90;3.70;;;;;;;21.36;58.94;101847.38;5060721;27;20042;-64
2023/09/07 08:15:47;;;;;;;6.40;3.58;;;;;;;21.37;58.78;101851.75;5055843;28;20478;-63
2023/09/07 08:18:17;;;;;;;4.32;3.25;;;;;;;21.38;58.96;101845.19;5063821;27;20049;-63
2023/09/07 08:20:45;;;;;;;5.25;3.85;;;;;;;21.41;58.96;101844.66;5058874;28;20562;-68
2023/09/07 08:23:13;;;;;;;4.82;3.03;;;;;;;21.42;59.17;101843.56;5053812;27;20045;-64
2023/09/07 08:25:46;;;;;;;9.77;4.03;;;;;;;21.43;59.13;101844.38;5061969;27;20494;-63
2023/09/07 08:28:15;;;;;;;6.78;3.67;;;;;;;21.42;59.17;101829.06;5061861;28;20049;-63
2023/09/07 08:30:43;;;;;;;4.32;3.13;;;;;;;21.46;58.84;101834.81;5056044;27;20056;-63
2023/09/07 08:33:11;;;;;;;8.38;3.55;;;;;;;21.47;59.11;101830.97;5056564;27;20144;-63
2023/09/07 08:35:43;;;;;;;7.40;3.70;;;;;;;21.47;59.32;101826.34;5071435;27;20373;-63
2023/09/07 08:38:13;;;;;;;5.00;3.42;;;;;;;21.49;59.27;101826.88;5061058;28;20049;-63
2023/09/07 08:40:41;;;;;;;6.45;3.28;;;;;;;21.49;59.45;101835.09;5058261;28;20045;-63
2023/09/07 08:43:11;;;;;;;9.02;3.67;;;;;;;21.51;59.32;101838.38;5060515;27;20052;-64
2023/09/07 08:45:47;;;;;;;6.43;3.25;;;;;;;21.54;59.48;101837.00;5057686;28;20049;-64
2023/09/07 08:48:18;;;;;;;5.97;3.40;;;;;;;21.55;59.83;101833.19;5063885;27;20055;-64
2023/09/07 08:50:49;;;;;;;5.47;3.50;;;;;;;21.56;59.39;101829.34;5059030;28;20044;-65
2023/09/07 08:53:19;;;;;;;6.50;3.45;;;;;;;21.58;59.26;101830.72;5065346;27;20090;-63
2023/09/07 08:55:47;;;;;;;7.40;3.28;;;;;;;21.57;59.20;101826.34;5059216;27;20048;-63
2023/09/07 08:58:15;;;;;;;5.10;3.50;;;;;;;21.54;59.47;101810.47;5058772;28;20065;-63
2023/09/07 09:00:43;;;;;;;7.97;4.13;;;;;;;21.62;59.57;101820.06;5055426;28;20066;-63
2023/09/07 09:03:11;;;;;;;7.32;3.72;;;;;;;21.64;59.59;101815.13;5059096;27;20060;-63
2023/09/07 09:05:41;;;;;;;5.78;3.03;;;;;;;21.66;59.49;101816.50;5059785;28;20045;-63
2023/09/07 09:08:10;;;;;;;4.40;3.00;;;;;;;21.69;59.65;101815.16;5057949;28;20045;-63
2023/09/07 09:10:40;;;;;;;5.35;3.40;;;;;;;21.60;59.46;101792.16;5056008;27;20056;-63
2023/09/07 09:13:08;;;;;;;6.20;3.30;;;;;;;21.73;59.64;101819.81;5060545;28;20108;-63
2023/09/07 09:15:36;;;;;;;4.63;3.15;;;;;;;21.73;59.43;101808.84;5058094;27;20053;-63
2023/09/07 09:18:12;;;;;;;5.20;2.97;;;;;;;21.78;59.63;101816.25;5061419;27;20068;-63
2023/09/07 09:20:40;;;;;;;6.55;3.10;;;;;;;21.79;59.53;101820.63;5057676;28;20082;-63
2023/09/07 09:23:12;;;;;;;5.38;3.33;;;;;;;21.83;59.51;101813.50;5058736;27;20070;-63
2023/09/07 09:25:41;;;;;;;5.90;3.30;;;;;;;21.86;59.37;101812.13;5059813;27;20468;-63
2023/09/07 09:28:10;;;;;;;4.00;2.80;;;;;;;21.88;59.33;101813.50;5061875;27;20049;-62
2023/09/07 09:30:38;;;;;;;5.25;3.28;;;;;;;21.91;59.45;101812.13;5056600;27;20078;-63
2023/09/07 09:33:07;;;;;;;5.43;3.28;;;;;;;21.93;59.74;101807.22;5059848;27;20066;-63
2023/09/07 09:35:36;;;;;;;4.63;3.25;;;;;;;21.95;59.36;101814.06;5063907;27;20088;-62
2023/09/07 09:38:04;;;;;;;8.32;3.28;;;;;;;21.99;59.79;101817.06;5059481;28;20049;-64
2023/09/07 09:40:35;;;;;;;4.45;2.80;;;;;;;21.97;59.67;101802.84;5057072;27;20088;-63
2023/09/07 09:43:04;;;;;;;6.93;3.10;;;;;;;22.07;60.12;101811.06;5063083;27;20046;-64
2023/09/07 09:45:33;;;;;;;6.18;3.33;;;;;;;22.11;59.99;101812.16;5058603;28;20136;-65
2023/09/07 09:48:01;;;;;;;4.97;2.90;;;;;;;22.14;60.26;101811.59;5065202;28;20207;-65
2023/09/07 09:50:29;;;;;;;5.55;3.33;;;;;;;22.17;60.33;101802.03;5055627;27;20052;-64
2023/09/07 09:52:59;;;;;;;4.57;3.13;;;;;;;22.20;60.53;101804.22;5061444;27;20061;-65
2023/09/07 09:55:27;;;;;;;4.95;2.95;;;;;;;22.23;60.58;101800.91;5060163;27;20056;-64
2023/09/07 09:57:57;;;;;;;3.75;3.10;;;;;;;22.25;60.78;101799.53;5058243;28;20049;-65
2023/09/07 10:00:26;;;;;;;4.85;2.90;;;;;;;22.28;60.73;101793.50;5048653;28;20049;-65
2023/09/07 10:03:03;;;;;;;4.90;3.20;;;;;;;22.31;60.51;101798.44;5059063;27;20044;-65
2023/09/07 10:05:33;;;;;;;5.47;3.10;;;;;;;22.36;60.36;101789.38;5051150;27;20056;-65
2023/09/07 10:08:05;;;;;;;4.72;2.72;;;;;;;22.39;60.50;101794.31;5058447;27;20052;-65
2023/09/07 10:10:36;;;;;;;4.88;2.50;;;;;;;22.40;60.43;101788.56;5060269;27;20064;-63
2023/09/07 10:13:06;;;;;;;6.75;3.05;;;;;;;22.47;60.16;101787.44;5060676;28;20049;-65
2023/09/07 10:15:35;;;;;;;5.55;2.95;;;;;;;22.51;60.70;101792.09;5053168;28;20049;-65
2023/09/07 10:18:08;;;;;;;6.38;3.13;;;;;;;22.56;60.78;101788.47;5059282;27;20053;-65
2023/09/07 10:20:48;;;;;;;3.90;2.80;;;;;;;22.61;60.43;101791.19;5059847;28;20064;-65
2023/09/07 10:23:16;;;;;;;6.75;3.35;;;;;;;22.66;60.19;101789.25;5052655;28;20053;-65
2023/09/07 10:25:49;;;;;;;5.32;3.13;;;;;;;22.71;60.39;101785.69;5057510;27;20582;-65
2023/09/07 10:28:23;;;;;;;4.25;3.17;;;;;;;22.78;60.31;101777.16;5061330;28;20063;-65
2023/09/07 10:31:03;;;;;;;4.75;2.78;;;;;;;22.82;60.38;101775.53;5056678;28;20124;-65
2023/09/07 10:33:31;;;;;;;5.55;2.85;;;;;;;22.86;60.11;101782.09;5059013;27;20057;-65
2023/09/07 10:36:01;;;;;;;3.20;2.50;;;;;;;22.89;60.48;101771.38;5109252;27;20049;-65
2023/09/07 10:38:29;;;;;;;6.70;2.78;;;;;;;22.98;60.46;101768.88;5076701;27;20049;-65
2023/09/07 10:41:00;;;;;;;4.43;2.97;;;;;;;23.03;60.43;101775.13;5057049;28;20094;-65
2023/09/07 10:43:31;;;;;;;5.72;3.15;;;;;;;23.07;60.22;101761.69;5060684;28;20084;-65
2023/09/07 10:46:00;;;;;;;7.32;3.22;;;;;;;23.10;59.98;101763.84;5058328;27;20496;-65
2023/09/07 10:48:30;;;;;;;4.55;2.72;;;;;;;23.13;59.37;101771.53;5061190;28;20062;-65
2023/09/07 10:50:58;;;;;;;5.22;2.70;;;;;;;23.17;59.72;101763.53;5060113;28;20052;-65
2023/09/07 10:53:28;;;;;;;5.13;2.80;;;;;;;23.14;59.85;101745.72;5054926;27;20070;-67
2023/09/07 10:55:59;;;;;;;3.83;2.65;;;;;;;23.24;59.35;101759.38;5058695;27;20047;-64
2023/09/07 10:58:28;;;;;;;4.70;2.50;;;;;;;23.29;59.46;101753.84;5055172;27;20048;-66
2023/09/07 11:01:00;;;;;;;6.13;2.95;;;;;;;23.36;59.65;101756.28;5059736;27;20140;-66
2023/09/07 11:03:29;;;;;;;6.30;3.35;;;;;;;23.40;60.07;101743.63;5059935;28;20041;-66
2023/09/07 11:06:00;;;;;;;4.15;2.58;;;;;;;23.44;59.93;101744.69;5058073;27;20065;-65
2023/09/07 11:08:30;;;;;;;5.40;2.92;;;;;;;23.48;60.01;101742.19;5047059;28;20055;-66
2023/09/07 11:10:58;;;;;;;4.10;3.13;;;;;;;23.50;59.89;101737.25;5058808;27;20474;-66
2023/09/07 11:13:27;;;;;;;3.45;2.58;;;;;;;23.45;59.62;101724.38;5060203;28;20086;-66
2023/09/07 11:15:55;;;;;;;4.78;3.15;;;;;;;23.58;59.80;101740.22;5060103;27;20049;-66
2023/09/07 11:18:25;;;;;;;3.47;2.47;;;;;;;23.63;59.59;101737.44;5054993;27;20045;-66
2023/09/07 11:20:54;;;;;;;3.95;2.67;;;;;;;23.65;59.62;101737.97;5058087;27;20052;-66
2023/09/07 11:23:23;;;;;;;4.45;2.95;;;;;;;23.71;59.55;101740.66;5058478;28;20045;-66
2023/09/07 11:25:51;;;;;;;4.80;2.70;;;;;;;23.75;59.77;101745.28;5054771;27;20061;-66
2023/09/07 11:28:22;;;;;;;4.65;2.83;;;;;;;23.82;60.51;101743.03;5053032;27;21563;-67
2023/09/07 11:30:51;;;;;;;3.97;3.03;;;;;;;23.86;59.82;101737.78;5052963;27;20041;-66